Time;durP1;ratioP1;P1;durP2;ratioP2;P2;SDS_P1;SDS_P2;PMS_P1;PMS_P2;Temp;Humidity;BMP_temperature;BMP_pressure;BME280_temperature;BME280_humidity;BME280_pressure;Samples;Min_cycle;Max_cycle;Signal;HPM_P1;HPM_P2
2021/10/19 00:00:20;;;;;;;;;15.75;13.50;;;;;17.70;52.10;99426.97;4781014;28;105288;-84
2021/10/19 00:02:51;;;;;;;;;15.00;13.00;;;;;17.70;51.98;99435.16;4770076;29;102769;-85
2021/10/19 00:05:20;;;;;;;;;15.50;13.75;;;;;17.68;51.29;99423.63;4797727;29;103073;-85
2021/10/19 00:07:50;;;;;;;;;14.00;13.00;;;;;17.66;51.90;99436.69;4788863;29;103929;-85
2021/10/19 00:10:20;;;;;;;;;15.75;15.25;;;;;17.66;51.88;99436.69;4800893;29;102695;-84
2021/10/19 00:12:49;;;;;;;;;15.50;15.25;;;;;17.67;51.77;99432.88;4803848;29;102525;-84
2021/10/19 00:15:19;;;;;;;;;16.50;15.00;;;;;17.65;51.47;99435.00;4796257;29;105778;-85
2021/10/19 00:17:48;;;;;;;;;13.25;11.25;;;;;17.65;51.30;99440.47;4792568;29;102237;-85
2021/10/19 00:20:16;;;;;;;;;18.00;15.50;;;;;17.63;51.52;99445.34;4798394;29;102607;-85
2021/10/19 00:22:45;;;;;;;;;17.00;15.00;;;;;17.63;51.19;99441.78;4805345;29;103727;-84
2021/10/19 00:25:17;;;;;;;;;15.25;14.00;;;;;17.61;51.04;99444.72;4798799;29;103942;-84
2021/10/19 00:27:45;;;;;;;;;17.00;15.25;;;;;17.60;51.35;99444.97;4799838;29;102517;-85
2021/10/19 00:30:15;;;;;;;;;16.75;15.50;;;;;17.59;51.79;99443.28;4795349;28;102539;-84
2021/10/19 00:32:44;;;;;;;;;17.25;15.25;;;;;17.56;51.58;99439.06;4800709;29;102390;-84
2021/10/19 00:35:14;;;;;;;;;13.25;12.75;;;;;17.53;51.41;99436.78;4767576;28;103263;-84
2021/10/19 00:37:43;;;;;;;;;16.25;13.75;;;;;17.55;51.11;99440.16;4799523;29;103597;-84
2021/10/19 00:40:13;;;;;;;;;16.50;14.00;;;;;17.53;51.52;99438.69;4800789;29;102582;-85
2021/10/19 00:42:41;;;;;;;;;17.25;13.50;;;;;17.54;51.82;99437.63;4806194;29;102681;-84
2021/10/19 00:45:10;;;;;;;;;12.00;9.00;;;;;17.51;51.68;99430.72;4797273;29;103946;-85
2021/10/19 00:47:51;;;;;;;;;16.25;15.00;;;;;17.52;51.39;99429.63;4795492;29;103403;-85
2021/10/19 00:50:19;;;;;;;;;14.00;12.25;;;;;17.51;51.13;99425.25;4795249;29;102477;-84
2021/10/19 00:52:47;;;;;;;;;15.25;14.50;;;;;17.49;51.51;99427.38;4802036;29;102270;-84
2021/10/19 00:55:15;;;;;;;;;16.50;14.75;;;;;17.50;51.30;99425.47;4792257;29;105083;-84
2021/10/19 00:57:45;;;;;;;;;17.75;12.75;;;;;17.48;51.57;99412.00;4788308;29;104603;-84
2021/10/19 01:00:14;;;;;;;;;15.25;13.00;;;;;17.47;51.06;99409.53;4778101;29;104599;-85
2021/10/19 01:02:43;;;;;;;;;14.67;12.33;;;;;17.45;51.34;99407.00;4750344;29;104936;-84
2021/10/19 01:05:12;;;;;;;;;15.25;14.50;;;;;17.45;51.05;99409.75;4782761;29;104224;-85
2021/10/19 01:07:42;;;;;;;;;14.75;14.25;;;;;17.41;51.73;99400.31;4755232;29;102385;-84
2021/10/19 01:10:11;;;;;;;;;17.00;14.00;;;;;17.41;51.08;99411.25;4786002;29;102659;-85
2021/10/19 01:12:41;;;;;;;;;12.00;11.00;;;;;17.41;51.36;99405.78;4794584;29;102796;-84
2021/10/19 01:15:14;;;;;;;;;16.75;14.75;;;;;17.39;50.84;99407.91;4801003;29;104853;-85
2021/10/19 01:17:43;;;;;;;;;15.00;13.00;;;;;17.39;51.75;99402.44;4796834;29;102653;-85
2021/10/19 01:20:33;;;;;;;;;14.75;12.75;;;;;17.37;51.35;99410.03;4789060;29;102729;-84
2021/10/19 01:23:01;;;;;;;;;14.25;13.00;;;;;17.36;51.45;99411.09;4795692;29;104678;-84
2021/10/19 01:25:30;;;;;;;;;14.00;13.00;;;;;17.36;50.88;99400.16;4779122;29;106624;-84
2021/10/19 01:28:00;;;;;;;;;13.00;13.00;;;;;17.32;50.92;99390.75;4778630;29;105456;-84
2021/10/19 01:30:27;;;;;;;;;14.50;13.50;;;;;17.34;51.33;99394.91;4793764;29;102409;-84
2021/10/19 01:32:55;;;;;;;;;14.25;12.25;;;;;17.33;51.45;99398.72;4802232;29;103906;-84
2021/10/19 01:35:32;;;;;;;;;13.25;12.25;;;;;17.33;50.75;99403.34;4794394;29;104526;-84
2021/10/19 01:37:59;;;;;;;;;12.25;12.00;;;;;17.32;51.53;99401.66;4802952;29;102730;-84
2021/10/19 01:40:26;;;;;;;;;14.75;13.75;;;;;17.31;50.69;99389.91;4784838;29;102662;-84
2021/10/19 01:42:53;;;;;;;;;18.75;14.25;;;;;17.30;51.15;99384.66;4800103;29;103762;-84
2021/10/19 01:45:20;;;;;;;;;15.00;14.00;;;;;17.30;50.66;99387.38;4788674;29;103900;-84
2021/10/19 01:47:48;;;;;;;;;14.25;14.25;;;;;17.29;51.21;99388.47;4798742;29;102469;-84
2021/10/19 01:50:15;;;;;;;;;13.50;12.25;;;;;17.28;51.70;99384.06;4799133;29;102584;-85
2021/10/19 01:52:43;;;;;;;;;14.25;12.50;;;;;17.28;50.45;99373.13;4779951;29;102836;-84
2021/10/19 01:55:10;;;;;;;;;11.00;11.00;;;;;17.24;50.81;99367.28;4798308;29;104099;-84
2021/10/19 01:57:37;;;;;;;;;11.25;10.50;;;;;17.25;51.09;99366.19;4803684;29;104343;-84
2021/10/19 02:00:05;;;;;;;;;14.75;13.00;;;;;17.24;50.92;99360.97;4800592;29;102539;-84
2021/10/19 02:02:32;;;;;;;;;12.50;12.50;;;;;17.24;51.05;99360.97;4802324;29;102766;-85
2021/10/19 02:04:59;;;;;;;;;14.75;13.00;;;;;17.24;51.02;99361.81;4803866;29;103946;-85
2021/10/19 02:07:26;;;;;;;;;14.00;13.00;;;;;17.22;51.57;99365.81;4810086;29;102554;-84
2021/10/19 02:09:53;;;;;;;;;12.75;12.75;;;;;17.22;50.56;99371.28;4801977;29;109574;-84
2021/10/19 02:12:20;;;;;;;;;15.50;12.75;;;;;17.20;50.99;99373.41;4807686;28;104096;-84
2021/10/19 02:14:47;;;;;;;;;10.50;10.50;;;;;17.20;50.76;99385.16;4810110;29;104259;-84
2021/10/19 02:17:14;;;;;;;;;13.00;12.00;;;;;17.19;51.01;99379.94;4804292;29;102176;-84
2021/10/19 02:19:41;;;;;;;;;12.75;11.75;;;;;17.19;51.00;99380.78;4810122;28;102475;-84
2021/10/19 02:22:09;;;;;;;;;12.25;11.00;;;;;17.17;50.31;99385.63;4807698;28;104169;-84
2021/10/19 02:24:36;;;;;;;;;12.00;11.00;;;;;17.16;51.16;99380.34;4807949;28;104075;-84
2021/10/19 02:27:03;;;;;;;;;12.00;11.25;;;;;17.16;51.38;99373.00;4803407;29;103748;-84
2021/10/19 02:29:30;;;;;;;;;15.75;13.25;;;;;17.15;51.09;99365.88;4811019;28;102730;-84
2021/10/19 02:31:57;;;;;;;;;13.75;11.25;;;;;17.14;51.01;99371.56;4807144;29;102381;-84
2021/10/19 02:34:24;;;;;;;;;16.75;14.25;;;;;17.15;50.96;99378.72;4810539;29;104286;-84
2021/10/19 02:36:51;;;;;;;;;11.75;11.00;;;;;17.13;50.15;99373.47;4803230;29;102622;-84
2021/10/19 02:39:18;;;;;;;;;11.00;11.00;;;;;17.13;51.03;99372.63;4812716;28;103276;-84
2021/10/19 02:41:45;;;;;;;;;11.75;11.00;;;;;17.12;51.43;99374.50;4810449;29;103197;-84
2021/10/19 02:44:12;;;;;;;;;12.00;11.00;;;;;17.12;50.91;99376.41;4806949;29;104040;-84
2021/10/19 02:46:39;;;;;;;;;13.00;11.25;;;;;17.12;51.35;99368.22;4810129;29;104122;-84
2021/10/19 02:49:06;;;;;;;;;13.00;11.50;;;;;17.11;50.96;99369.28;4808004;29;102999;-84
2021/10/19 02:51:33;;;;;;;;;13.25;12.00;;;;;17.09;50.37;99366.78;4803364;28;102619;-84
2021/10/19 02:54:00;;;;;;;;;11.75;11.75;;;;;17.08;50.67;99364.25;4791905;29;104197;-84
2021/10/19 02:56:27;;;;;;;;;12.75;11.25;;;;;17.07;50.74;99368.03;4812754;29;102527;-84
2021/10/19 02:58:54;;;;;;;;;12.00;12.00;;;;;17.05;50.39;99361.97;4792864;29;105720;-84
2021/10/19 03:01:21;;;;;;;;;11.00;10.75;;;;;17.06;50.64;99355.47;4814496;29;102435;-84
2021/10/19 03:03:48;;;;;;;;;12.75;12.00;;;;;17.06;50.26;99363.66;4813235;28;104342;-84
2021/10/19 03:06:15;;;;;;;;;15.75;13.00;;;;;17.05;50.66;99361.97;4794403;29;102418;-84
2021/10/19 03:08:42;;;;;;;;;9.75;9.75;;;;;17.04;50.86;99354.84;4815409;29;102409;-84
2021/10/19 03:11:09;;;;;;;;;15.00;12.00;;;;;17.03;50.93;99356.72;4810104;29;104662;-84
2021/10/19 03:13:37;;;;;;;;;9.25;9.00;;;;;17.03;50.28;99347.69;4810028;29;104085;-84
2021/10/19 03:16:14;;;;;;;;;13.50;12.25;;;;;17.01;51.09;99349.81;4805414;29;103824;-85
2021/10/19 03:18:42;;;;;;;;;13.50;10.00;;;;;17.02;51.21;99351.50;4784677;29;102515;-85
2021/10/19 03:21:09;;;;;;;;;11.75;10.50;;;;;17.01;50.94;99347.94;4809131;29;105687;-85
2021/10/19 03:23:36;;;;;;;;;13.50;12.00;;;;;17.01;50.35;99355.28;4803808;29;108939;-84
2021/10/19 03:26:03;;;;;;;;;11.00;11.00;;;;;17.00;50.53;99359.91;4802195;29;103160;-84
2021/10/19 03:28:30;;;;;;;;;12.00;10.75;;;;;17.00;50.33;99359.09;4785493;29;102290;-84
2021/10/19 03:30:57;;;;;;;;;11.25;10.25;;;;;16.99;50.84;99360.13;4805710;29;102701;-84
2021/10/19 03:33:24;;;;;;;;;15.00;12.00;;;;;16.97;50.07;99356.81;4802792;29;104266;-84
2021/10/19 03:35:52;;;;;;;;;11.50;11.50;;;;;16.98;50.22;99366.66;4784007;29;103784;-85
2021/10/19 03:38:19;;;;;;;;;15.25;12.25;;;;;16.97;51.08;99354.06;4810015;29;102516;-84
2021/10/19 03:40:47;;;;;;;;;12.75;11.00;;;;;16.97;50.69;99354.06;4807323;29;102645;-84
2021/10/19 03:43:14;;;;;;;;;11.25;11.00;;;;;16.93;50.22;99354.50;4804437;29;105283;-85
2021/10/19 03:45:42;;;;;;;;;13.25;13.00;;;;;16.95;50.20;99351.56;4805445;29;104218;-84
2021/10/19 03:48:09;;;;;;;;;12.75;10.50;;;;;16.94;50.03;99353.44;4790601;29;102470;-84
2021/10/19 03:50:36;;;;;;;;;12.75;12.00;;;;;16.93;50.67;99354.50;4803599;29;103130;-84
2021/10/19 03:53:03;;;;;;;;;13.00;12.00;;;;;16.91;50.52;99356.63;4813475;29;104031;-84
2021/10/19 03:55:30;;;;;;;;;15.00;12.50;;;;;16.92;50.31;99358.31;4802166;29;102506;-84
2021/10/19 03:57:57;;;;;;;;;13.25;12.75;;;;;16.90;50.77;99357.69;4804317;29;102577;-84
2021/10/19 04:00:24;;;;;;;;;11.25;11.00;;;;;16.91;50.37;99359.38;4802777;29;102624;-85
2021/10/19 04:02:51;;;;;;;;;14.00;12.00;;;;;16.90;50.12;99349.50;4805531;29;104284;-85
2021/10/19 04:05:19;;;;;;;;;14.25;13.75;;;;;16.90;50.30;99346.75;4806376;29;102255;-84
2021/10/19 04:07:46;;;;;;;;;13.50;11.75;;;;;16.89;50.56;99345.09;4805024;29;103262;-84
2021/10/19 04:10:14;;;;;;;;;11.50;10.75;;;;;16.89;50.73;99352.44;4807488;29;105205;-84
2021/10/19 04:12:41;;;;;;;;;10.75;9.25;;;;;16.86;50.82;99355.63;4792283;29;104058;-85
2021/10/19 04:15:08;;;;;;;;;11.50;11.00;;;;;16.87;50.24;99344.50;4789405;29;102141;-84
2021/10/19 04:17:35;;;;;;;;;11.00;10.00;;;;;16.86;50.85;99353.72;4804290;29;104018;-84
2021/10/19 04:20:03;;;;;;;;;11.00;11.00;;;;;16.85;50.62;99351.22;4804322;29;103653;-84
2021/10/19 04:22:30;;;;;;;;;13.00;11.75;;;;;16.84;51.20;99352.31;4806656;29;104311;-84
2021/10/19 04:24:59;;;;;;;;;10.50;9.50;;;;;16.85;50.89;99351.22;4808239;29;103588;-84
2021/10/19 04:27:26;;;;;;;;;14.75;11.75;;;;;16.85;50.13;99351.22;4800667;29;102492;-82
2021/10/19 04:29:53;;;;;;;;;11.00;10.25;;;;;16.84;50.60;99346.84;4794451;29;102289;-84
2021/10/19 04:32:20;;;;;;;;;14.00;12.00;;;;;16.84;50.26;99352.31;4810612;29;103878;-84
2021/10/19 04:34:47;;;;;;;;;13.50;12.00;;;;;16.82;50.27;99343.47;4800476;29;102240;-84
2021/10/19 04:37:14;;;;;;;;;11.50;9.50;;;;;16.82;50.26;99347.03;4805583;29;102465;-84
2021/10/19 04:39:41;;;;;;;;;12.25;10.25;;;;;16.82;50.58;99347.03;4809239;29;102502;-84
2021/10/19 04:42:08;;;;;;;;;12.50;12.00;;;;;16.84;50.62;99349.56;4810347;29;104357;-84
2021/10/19 04:44:35;;;;;;;;;8.75;6.75;;;;;16.82;50.06;99346.22;4795777;29;102601;-84
2021/10/19 04:47:02;;;;;;;;;10.75;10.00;;;;;16.81;50.10;99350.84;4808279;28;102162;-84
2021/10/19 04:49:29;;;;;;;;;14.25;12.50;;;;;16.81;50.46;99356.28;4806766;29;102419;-84
2021/10/19 04:51:56;;;;;;;;;11.50;10.75;;;;;16.79;50.20;99346.66;4808319;29;104050;-84
2021/10/19 04:54:23;;;;;;;;;11.00;10.25;;;;;16.76;49.87;99350.66;4808282;28;102700;-84
2021/10/19 04:56:50;;;;;;;;;11.75;10.00;;;;;16.79;50.54;99352.97;4770426;29;102309;-84
2021/10/19 04:59:17;;;;;;;;;11.50;11.25;;;;;16.79;50.52;99352.97;4781068;29;102705;-84
2021/10/19 05:01:44;;;;;;;;;11.25;10.00;;;;;16.77;49.92;99355.06;4805725;29;105988;-84
2021/10/19 05:04:15;;;;;;;;;13.00;10.50;;;;;16.77;50.11;99359.69;4802751;29;102637;-84
2021/10/19 05:06:42;;;;;;;;;12.75;12.00;;;;;16.77;50.22;99354.22;4774474;29;102701;-84
2021/10/19 05:09:09;;;;;;;;;12.00;11.00;;;;;16.76;50.37;99353.38;4806843;29;102477;-84
2021/10/19 05:11:36;;;;;;;;;12.25;10.00;;;;;16.75;49.96;99368.09;4804646;29;110715;-84
2021/10/19 05:14:04;;;;;;;;;14.00;11.00;;;;;16.75;49.90;99373.56;4820378;29;102427;-84
2021/10/19 05:16:31;;;;;;;;;11.00;9.50;;;;;16.75;50.62;99379.03;4791517;29;102452;-84
2021/10/19 05:18:58;;;;;;;;;14.75;10.00;;;;;16.74;50.53;99377.38;4811164;29;106522;-84
2021/10/19 05:21:25;;;;;;;;;13.25;11.75;;;;;16.74;50.48;99382.00;4807054;29;104633;-84
2021/10/19 05:23:52;;;;;;;;;12.00;11.00;;;;;16.73;50.15;99386.63;4810487;29;102622;-84
2021/10/19 05:26:19;;;;;;;;;8.50;8.00;;;;;16.72;50.19;99384.09;4814361;29;103087;-84
2021/10/19 05:28:46;;;;;;;;;11.00;10.25;;;;;16.73;50.36;99393.97;4808294;29;103975;-84
2021/10/19 05:31:13;;;;;;;;;10.25;10.00;;;;;16.72;50.76;99384.94;4811860;29;104276;-84
2021/10/19 05:33:40;;;;;;;;;12.00;10.75;;;;;16.72;49.59;99390.41;4819395;29;102578;-84
2021/10/19 05:36:07;;;;;;;;;10.75;9.25;;;;;16.72;49.83;99395.03;4803163;29;102566;-84
2021/10/19 05:38:34;;;;;;;;;13.00;12.00;;;;;16.70;50.40;99403.47;4809019;29;102693;-84
2021/10/19 05:41:01;;;;;;;;;15.00;12.50;;;;;16.68;50.47;99407.44;4808851;29;104258;-84
2021/10/19 05:43:29;;;;;;;;;11.50;11.00;;;;;16.70;49.91;99419.84;4803796;29;103295;-84
2021/10/19 05:45:56;;;;;;;;;14.50;11.25;;;;;16.69;50.54;99411.84;4805153;29;103417;-84
2021/10/19 05:48:23;;;;;;;;;11.50;10.00;;;;;16.67;49.79;99409.34;4811965;29;102267;-84
2021/10/19 05:50:50;;;;;;;;;10.75;10.50;;;;;16.66;49.79;99396.72;4808301;29;104126;-84
2021/10/19 05:53:17;;;;;;;;;13.50;11.00;;;;;16.68;50.71;99416.47;4805057;29;102409;-84
2021/10/19 05:55:44;;;;;;;;;11.25;10.50;;;;;16.67;49.89;99416.69;4800931;29;102216;-84
2021/10/19 05:58:11;;;;;;;;;14.00;12.00;;;;;16.66;50.35;99415.84;4806139;29;102635;-84
2021/10/19 06:00:50;;;;;;;;;11.00;9.75;;;;;16.66;49.92;99415.84;4808796;29;109412;-84
2021/10/19 06:03:17;;;;;;;;;13.75;11.00;;;;;16.66;50.51;99418.56;4807971;29;102466;-85
2021/10/19 06:05:45;;;;;;;;;13.00;11.00;;;;;16.66;49.93;99428.69;4808174;29;102333;-84
2021/10/19 06:08:13;;;;;;;;;11.00;9.50;;;;;16.64;49.78;99417.97;4812653;29;106285;-84
2021/10/19 06:10:40;;;;;;;;;12.50;11.25;;;;;16.65;49.96;99427.84;4819635;29;104364;-84
2021/10/19 06:13:07;;;;;;;;;11.00;11.00;;;;;16.64;50.45;99420.72;4808940;29;102212;-84
2021/10/19 06:15:33;;;;;;;;;12.75;11.25;;;;;16.61;49.67;99417.59;4815051;29;102382;-84
2021/10/19 06:18:00;;;;;;;;;12.00;11.00;;;;;16.63;50.13;99419.03;4812953;29;102625;-84
2021/10/19 06:20:27;;;;;;;;;13.50;11.75;;;;;16.63;50.07;99421.75;4799468;29;103996;-84
2021/10/19 06:22:54;;;;;;;;;13.25;12.25;;;;;16.64;49.95;99414.41;4814558;29;102639;-84
2021/10/19 06:25:22;;;;;;;;;13.50;13.00;;;;;16.63;49.39;99410.00;4815640;29;102448;-84
2021/10/19 06:27:49;;;;;;;;;14.75;11.25;;;;;16.61;50.06;99393.84;4813740;29;102448;-84
2021/10/19 06:30:16;;;;;;;;;14.00;13.50;;;;;16.61;50.45;99402.06;4816616;29;104141;-83
2021/10/19 06:32:43;;;;;;;;;12.25;12.00;;;;;16.61;50.59;99407.50;4808126;29;102294;-84
2021/10/19 06:35:10;;;;;;;;;12.00;11.75;;;;;16.61;50.12;99404.78;4805661;29;102542;-84
2021/10/19 06:37:37;;;;;;;;;14.25;12.75;;;;;16.61;49.77;99393.84;4804237;29;102522;-84
2021/10/19 06:40:05;;;;;;;;;12.00;11.00;;;;;16.61;49.55;99393.84;4802342;29;104097;-84
2021/10/19 06:42:32;;;;;;;;;13.50;11.50;;;;;16.61;49.81;99393.00;4795302;29;111227;-84
2021/10/19 06:45:02;;;;;;;;;13.25;11.25;;;;;16.61;50.04;99395.75;4807430;29;103543;-84
2021/10/19 06:47:32;;;;;;;;;12.50;10.00;;;;;16.60;49.87;99394.91;4811904;29;111899;-84
2021/10/19 06:50:00;;;;;;;;;13.00;11.00;;;;;16.60;50.25;99392.19;4801005;29;104194;-84
2021/10/19 06:52:29;;;;;;;;;14.00;13.00;;;;;16.60;49.55;99392.19;4789747;29;102250;-84
2021/10/19 06:54:57;;;;;;;;;14.50;12.75;;;;;16.59;50.37;99390.50;4821511;29;103897;-84
2021/10/19 06:57:27;;;;;;;;;12.25;11.00;;;;;16.59;50.28;99385.03;4813174;29;102636;-84
2021/10/19 06:59:54;;;;;;;;;12.50;11.50;;;;;16.59;49.76;99378.72;4809503;29;104106;-84
2021/10/19 07:02:21;;;;;;;;;12.25;11.25;;;;;16.58;49.39;99377.91;4796827;29;104034;-84
2021/10/19 07:04:48;;;;;;;;;13.50;11.50;;;;;16.58;49.86;99380.63;4812588;29;102394;-84
2021/10/19 07:07:15;;;;;;;;;12.25;11.25;;;;;16.58;49.91;99377.06;4815670;29;102583;-84
2021/10/19 07:09:42;;;;;;;;;12.50;10.50;;;;;16.57;49.25;99376.19;4815844;29;104023;-84
2021/10/19 07:12:09;;;;;;;;;13.00;11.00;;;;;16.58;50.08;99375.16;4806745;29;103409;-84
2021/10/19 07:14:36;;;;;;;;;9.50;9.50;;;;;16.56;50.35;99369.06;4786691;29;103630;-84
2021/10/19 07:17:03;;;;;;;;;13.00;12.00;;;;;16.57;49.88;99370.72;4813012;29;106541;-84
2021/10/19 07:19:30;;;;;;;;;11.00;9.25;;;;;16.58;50.53;99377.06;4808580;28;103883;-84
2021/10/19 07:21:57;;;;;;;;;11.25;10.00;;;;;16.58;49.91;99382.50;4811978;29;102573;-84
2021/10/19 07:24:24;;;;;;;;;12.00;10.50;;;;;16.56;49.48;99380.00;4783948;29;103552;-84
2021/10/19 07:26:51;;;;;;;;;10.50;10.25;;;;;16.56;50.30;99390.91;4814681;29;103897;-84
2021/10/19 07:29:18;;;;;;;;;10.25;9.25;;;;;16.55;50.52;99391.97;4797332;29;104094;-84
2021/10/19 07:31:45;;;;;;;;;10.75;10.75;;;;;16.55;49.69;99386.50;4805312;29;103504;-84
2021/10/19 07:34:12;;;;;;;;;11.50;10.50;;;;;16.55;50.56;99391.97;4820750;29;102475;-84
2021/10/19 07:36:39;;;;;;;;;12.50;11.50;;;;;16.56;49.84;99392.81;4805421;28;102471;-84
2021/10/19 07:39:06;;;;;;;;;10.25;9.25;;;;;16.55;49.77;99389.22;4812884;29;104092;-84
2021/10/19 07:41:37;;;;;;;;;12.25;9.50;;;;;16.54;49.48;99395.75;4805092;29;102435;-84
2021/10/19 07:44:06;;;;;;;;;6.75;5.00;;;;;16.54;49.88;99390.28;4812526;29;102514;-84
2021/10/19 07:46:33;;;;;;;;;9.00;8.00;;;;;16.54;49.41;99390.28;4818358;29;102511;-84
2021/10/19 07:49:01;;;;;;;;;10.50;10.25;;;;;16.54;49.20;99390.28;4816577;29;104473;-84
2021/10/19 07:51:28;;;;;;;;;13.00;9.00;;;;;16.54;49.76;99382.09;4801336;29;102576;-84
2021/10/19 07:53:55;;;;;;;;;11.00;11.00;;;;;16.54;50.44;99387.56;4806254;29;102340;-84
2021/10/19 07:56:21;;;;;;;;;11.50;9.75;;;;;16.55;49.17;99378.31;4814711;29;102691;-84
2021/10/19 07:58:49;;;;;;;;;11.25;10.00;;;;;16.55;49.48;99367.38;4806945;29;104270;-84
2021/10/19 08:01:16;;;;;;;;;10.50;10.50;;;;;16.54;50.41;99368.44;4813147;29;102385;-85
2021/10/19 08:03:43;;;;;;;;;12.00;11.00;;;;;16.53;49.52;99372.22;4827379;29;102564;-84
2021/10/19 08:06:12;;;;;;;;;10.50;8.50;;;;;16.54;49.10;99379.38;4801719;29;102164;-84
2021/10/19 08:08:39;;;;;;;;;11.25;10.50;;;;;16.54;49.93;99379.38;4801313;29;110781;-84
2021/10/19 08:11:06;;;;;;;;;11.50;11.00;;;;;16.55;50.04;99382.94;4804998;29;102430;-84
2021/10/19 08:13:33;;;;;;;;;9.50;9.00;;;;;16.55;50.13;99380.19;4811522;29;102263;-84
2021/10/19 08:16:02;;;;;;;;;10.75;10.50;;;;;16.54;49.49;99376.63;4814466;29;102570;-84
2021/10/19 08:18:29;;;;;;;;;10.75;9.75;;;;;16.55;50.21;99383.78;4820396;29;103931;-83
2021/10/19 08:20:56;;;;;;;;;9.25;9.00;;;;;16.53;50.18;99378.53;4802725;29;103503;-84
2021/10/19 08:23:23;;;;;;;;;9.25;9.00;;;;;16.55;50.11;99381.03;4805549;28;102505;-84
2021/10/19 08:25:51;;;;;;;;;11.00;9.50;;;;;16.53;50.08;99375.78;4816160;29;103642;-84
2021/10/19 08:28:25;;;;;;;;;7.25;7.25;;;;;16.53;50.12;99381.25;4789046;29;104283;-85
2021/10/19 08:30:52;;;;;;;;;12.00;10.00;;;;;16.54;50.06;99387.56;4812399;29;101996;-84
2021/10/19 08:33:19;;;;;;;;;9.25;8.75;;;;;16.53;49.40;99381.25;4815825;29;102451;-84
2021/10/19 08:35:46;;;;;;;;;8.00;8.00;;;;;16.55;49.99;99377.47;4814904;29;102933;-84
2021/10/19 08:38:13;;;;;;;;;9.75;8.75;;;;;16.54;49.42;99376.63;4812052;29;103845;-84
2021/10/19 08:40:41;;;;;;;;;8.00;8.00;;;;;16.56;50.36;99379.16;4805753;29;104400;-84
2021/10/19 08:43:08;;;;;;;;;9.25;9.00;;;;;16.56;49.75;99381.88;4793284;29;103431;-84
2021/10/19 08:45:35;;;;;;;;;10.50;9.00;;;;;16.55;49.60;99386.50;4809785;28;103258;-84
2021/10/19 08:48:03;;;;;;;;;9.00;9.00;;;;;16.56;49.36;99382.72;4800599;29;104170;-84
2021/10/19 08:50:30;;;;;;;;;9.00;9.00;;;;;16.57;50.26;99380.84;4791781;29;102636;-84
2021/10/19 08:52:57;;;;;;;;;11.00;9.00;;;;;16.56;49.73;99382.72;4804535;29;103016;-84
2021/10/19 08:55:24;;;;;;;;;10.25;9.00;;;;;16.56;49.87;99390.91;4820565;29;103378;-84
2021/10/19 08:57:51;;;;;;;;;12.75;10.50;;;;;16.57;49.77;99386.28;4813625;29;105057;-84
2021/10/19 09:00:18;;;;;;;;;8.75;8.00;;;;;16.56;49.91;99393.66;4807436;29;102879;-84
2021/10/19 09:02:47;;;;;;;;;9.50;8.00;;;;;16.57;50.16;99387.09;4809623;29;102516;-84
2021/10/19 09:05:16;;;;;;;;;10.50;9.25;;;;;16.56;49.88;99384.63;4805647;29;102237;-84
2021/10/19 09:07:59;;;;;;;;;11.50;9.75;;;;;16.57;49.59;99380.84;4790124;29;109081;-84
2021/10/19 09:10:31;;;;;;;;;9.00;9.00;;;;;16.56;49.85;99390.91;4800944;29;103278;-84
2021/10/19 09:13:00;;;;;;;;;9.00;7.25;;;;;16.57;49.91;99383.56;4823501;29;102504;-84
2021/10/19 09:15:29;;;;;;;;;10.50;9.25;;;;;16.57;50.35;99387.09;4804924;29;103692;-84
2021/10/19 09:18:06;;;;;;;;;11.75;9.00;;;;;16.58;50.10;99372.44;4801543;29;104026;-84
2021/10/19 09:20:35;;;;;;;;;8.00;8.00;;;;;16.57;49.81;99370.72;4803777;29;102521;-84
2021/10/19 09:23:02;;;;;;;;;12.25;10.00;;;;;16.58;50.19;99366.97;4806643;29;104253;-84
2021/10/19 09:25:37;;;;;;;;;11.50;9.00;;;;;16.59;49.76;99365.91;4807073;29;103973;-84
2021/10/19 09:28:06;;;;;;;;;8.25;8.00;;;;;16.58;50.22;99361.50;4795392;29;103920;-84
2021/10/19 09:30:49;;;;;;;;;12.25;10.00;;;;;16.58;49.86;99366.97;4802625;29;102407;-84
2021/10/19 09:33:20;;;;;;;;;9.50;7.50;;;;;16.59;50.11;99368.66;4802286;29;102695;-85
2021/10/19 09:35:49;;;;;;;;;10.00;9.00;;;;;16.58;49.44;99363.41;4785291;29;102984;-84
2021/10/19 09:38:17;;;;;;;;;8.00;7.00;;;;;16.59;50.00;99362.34;4792661;29;103604;-83
2021/10/19 09:40:49;;;;;;;;;10.00;9.50;;;;;16.59;49.28;99357.72;4790147;29;107897;-84
2021/10/19 09:43:18;;;;;;;;;9.00;8.25;;;;;16.57;49.69;99348.88;4801986;29;102540;-84
2021/10/19 09:45:46;;;;;;;;;9.50;7.00;;;;;16.59;49.45;99354.16;4781570;29;102769;-84
2021/10/19 09:48:15;;;;;;;;;10.25;9.00;;;;;16.58;49.63;99350.59;4815093;29;110020;-84
2021/10/19 09:50:43;;;;;;;;;9.00;8.50;;;;;16.60;49.51;99353.09;4806732;29;103631;-84
2021/10/19 09:53:13;;;;;;;;;8.00;8.00;;;;;16.60;49.29;99344.91;4817416;29;102498;-84
2021/10/19 09:55:41;;;;;;;;;8.50;7.50;;;;;16.61;49.51;99341.97;4805575;29;102467;-84
2021/10/19 09:58:08;;;;;;;;;8.00;6.25;;;;;16.61;48.81;99333.78;4785793;29;104109;-84
2021/10/19 10:00:37;;;;;;;;;8.50;7.25;;;;;16.60;49.50;99325.81;4786403;29;103046;-84
2021/10/19 10:03:04;;;;;;;;;9.25;9.00;;;;;16.62;49.03;99329.13;4789888;29;105199;-84
2021/10/19 10:05:33;;;;;;;;;9.75;7.50;;;;;16.63;49.06;99330.81;4804762;29;102470;-84
2021/10/19 10:08:02;;;;;;;;;9.50;8.50;;;;;16.62;49.95;99321.78;4795737;29;103698;-84
2021/10/19 10:10:31;;;;;;;;;9.00;7.50;;;;;16.62;49.52;99316.31;4810478;29;102523;-84
2021/10/19 10:13:07;;;;;;;;;12.50;8.00;;;;;16.62;49.32;99319.03;4806263;29;103209;-84
2021/10/19 10:15:35;;;;;;;;;6.00;5.25;;;;;16.61;49.94;99316.56;4802968;29;103210;-84
2021/10/19 10:18:05;;;;;;;;;9.00;8.25;;;;;16.61;48.73;99305.63;4801114;29;104004;-84
2021/10/19 10:20:43;;;;;;;;;10.00;8.50;;;;;16.62;49.27;99310.84;4791878;29;103354;-84
2021/10/19 10:23:17;;;;;;;;;6.75;6.00;;;;;16.61;50.02;99300.19;4784002;29;111565;-84
2021/10/19 10:25:45;;;;;;;;;9.25;8.75;;;;;16.62;49.10;99296.38;4801133;29;103736;-84
2021/10/19 10:28:17;;;;;;;;;8.50;7.00;;;;;16.62;49.68;99294.47;4802064;29;103905;-84
2021/10/19 10:30:49;;;;;;;;;6.75;6.75;;;;;16.62;49.64;99299.94;4796848;29;102902;-84
2021/10/19 10:33:17;;;;;;;;;9.00;6.50;;;;;16.63;49.53;99296.16;4803930;29;102344;-84
2021/10/19 10:35:46;;;;;;;;;8.50;8.00;;;;;16.64;49.38;99297.84;4807461;29;102549;-84
2021/10/19 10:38:14;;;;;;;;;7.75;7.00;;;;;16.65;49.56;99301.41;4804277;28;110904;-84
2021/10/19 10:40:45;;;;;;;;;9.75;9.00;;;;;16.64;49.77;99292.38;4814131;29;102487;-84
2021/10/19 10:43:32;;;;;;;;;8.00;6.75;;;;;16.66;49.66;99287.50;4804152;29;103056;-84
2021/10/19 10:46:15;;;;;;;;;6.75;6.00;;;;;16.66;49.20;99281.22;4801724;29;102530;-84
2021/10/19 10:48:43;;;;;;;;;7.50;7.25;;;;;16.67;49.29;99274.69;4804542;29;104518;-84
2021/10/19 10:51:11;;;;;;;;;7.75;7.00;;;;;16.65;49.26;99274.09;4784275;29;102959;-84
2021/10/19 10:53:52;;;;;;;;;8.75;8.25;;;;;16.68;49.50;99277.22;4785627;29;102378;-84
2021/10/19 10:56:27;;;;;;;;;6.50;6.50;;;;;16.67;49.47;99278.25;4783778;29;102600;-84
2021/10/19 10:58:55;;;;;;;;;5.00;5.00;;;;;16.67;49.95;99274.69;4802502;29;105079;-84
2021/10/19 11:01:28;;;;;;;;;7.25;6.00;;;;;16.67;50.06;99272.78;4816494;29;102640;-84
2021/10/19 11:04:06;;;;;;;;;8.00;6.50;;;;;16.68;49.43;99279.09;4804598;29;102723;-84
2021/10/19 11:06:39;;;;;;;;;7.25;6.50;;;;;16.68;49.35;99274.47;4811640;29;102404;-84
2021/10/19 11:09:12;;;;;;;;;12.00;8.50;;;;;16.68;49.56;99269.00;4790660;29;104101;-84
2021/10/19 11:11:45;;;;;;;;;6.50;6.50;;;;;16.70;49.10;99266.91;4802333;28;102484;-84
2021/10/19 11:14:20;;;;;;;;;7.00;6.50;;;;;16.71;48.95;99265.81;4778888;29;102840;-84
2021/10/19 11:16:50;;;;;;;;;7.25;6.75;;;;;16.72;49.24;99259.31;4799491;28;102681;-84
2021/10/19 11:19:26;;;;;;;;;6.00;5.75;;;;;16.73;48.91;99257.41;4786685;29;107936;-83